sensor_id;sensor_type;location;lat;lon;timestamp;temperature;humidity
15203;DHT22;7702;51.046;5.184;2023-05-28T00:02:25;13.70;99.90
15203;DHT22;7702;51.046;5.184;2023-05-28T00:04:50;13.60;99.90
15203;DHT22;7702;51.046;5.184;2023-05-28T00:07:16;13.60;99.90
15203;DHT22;7702;51.046;5.184;2023-05-28T00:09:42;13.50;99.90
15203;DHT22;7702;51.046;5.184;2023-05-28T00:12:08;13.40;99.90
15203;DHT22;7702;51.046;5.184;2023-05-28T00:14:34;13.30;99.90
15203;DHT22;7702;51.046;5.184;2023-05-28T00:17:00;13.20;99.90
15203;DHT22;7702;51.046;5.184;2023-05-28T00:19:26;13.20;99.90
15203;DHT22;7702;51.046;5.184;2023-05-28T00:21:51;13.10;99.90
15203;DHT22;7702;51.046;5.184;2023-05-28T00:24:17;13.10;99.90
15203;DHT22;7702;51.046;5.184;2023-05-28T00:26:43;13.10;99.90
15203;DHT22;7702;51.046;5.184;2023-05-28T00:29:08;13.10;99.90
15203;DHT22;7702;51.046;5.184;2023-05-28T00:31:34;13.00;99.90
15203;DHT22;7702;51.046;5.184;2023-05-28T00:34:00;13.00;99.90
15203;DHT22;7702;51.046;5.184;2023-05-28T00:36:26;12.90;99.90
15203;DHT22;7702;51.046;5.184;2023-05-28T00:38:52;12.90;99.90
15203;DHT22;7702;51.046;5.184;2023-05-28T00:41:22;12.90;99.90
15203;DHT22;7702;51.046;5.184;2023-05-28T00:43:51;12.90;99.90
15203;DHT22;7702;51.046;5.184;2023-05-28T00:46:21;12.80;99.90
15203;DHT22;7702;51.046;5.184;2023-05-28T00:48:49;12.70;99.90
15203;DHT22;7702;51.046;5.184;2023-05-28T00:51:15;12.60;99.90
15203;DHT22;7702;51.046;5.184;2023-05-28T00:53:41;12.50;99.90
15203;DHT22;7702;51.046;5.184;2023-05-28T00:56:08;12.50;99.90
15203;DHT22;7702;51.046;5.184;2023-05-28T00:58:36;12.50;99.90
15203;DHT22;7702;51.046;5.184;2023-05-28T01:01:06;12.40;99.90
15203;DHT22;7702;51.046;5.184;2023-05-28T01:03:31;12.40;99.90
15203;DHT22;7702;51.046;5.184;2023-05-28T01:05:57;12.30;99.90
15203;DHT22;7702;51.046;5.184;2023-05-28T01:08:26;12.30;99.90
15203;DHT22;7702;51.046;5.184;2023-05-28T01:10:53;12.20;99.90
15203;DHT22;7702;51.046;5.184;2023-05-28T01:13:19;12.20;99.90
15203;DHT22;7702;51.046;5.184;2023-05-28T01:15:45;12.20;99.90
15203;DHT22;7702;51.046;5.184;2023-05-28T01:18:11;12.20;99.90
15203;DHT22;7702;51.046;5.184;2023-05-28T01:20:37;12.10;99.90
15203;DHT22;7702;51.046;5.184;2023-05-28T01:23:06;12.10;99.90
15203;DHT22;7702;51.046;5.184;2023-05-28T01:25:36;12.10;99.90
15203;DHT22;7702;51.046;5.184;2023-05-28T01:28:11;12.10;99.90
15203;DHT22;7702;51.046;5.184;2023-05-28T01:30:38;12.00;99.90
15203;DHT22;7702;51.046;5.184;2023-05-28T01:33:05;12.00;99.90
15203;DHT22;7702;51.046;5.184;2023-05-28T01:35:31;12.10;99.90
15203;DHT22;7702;51.046;5.184;2023-05-28T01:37:59;12.00;99.90
15203;DHT22;7702;51.046;5.184;2023-05-28T01:40:27;12.00;99.90
15203;DHT22;7702;51.046;5.184;2023-05-28T01:42:53;12.00;99.90
15203;DHT22;7702;51.046;5.184;2023-05-28T01:45:21;12.00;99.90
15203;DHT22;7702;51.046;5.184;2023-05-28T01:47:47;12.00;99.90
15203;DHT22;7702;51.046;5.184;2023-05-28T01:50:14;11.90;99.90
15203;DHT22;7702;51.046;5.184;2023-05-28T01:52:40;11.90;99.90
15203;DHT22;7702;51.046;5.184;2023-05-28T01:55:07;11.90;99.90
15203;DHT22;7702;51.046;5.184;2023-05-28T01:57:36;11.90;99.90
15203;DHT22;7702;51.046;5.184;2023-05-28T02:00:02;11.90;99.90
15203;DHT22;7702;51.046;5.184;2023-05-28T02:02:29;12.00;99.90
15203;DHT22;7702;51.046;5.184;2023-05-28T02:04:54;12.00;99.90
15203;DHT22;7702;51.046;5.184;2023-05-28T02:07:20;11.90;99.90
15203;DHT22;7702;51.046;5.184;2023-05-28T02:09:46;11.90;99.90
15203;DHT22;7702;51.046;5.184;2023-05-28T02:12:12;12.00;99.90
15203;DHT22;7702;51.046;5.184;2023-05-28T02:14:38;11.90;99.90
15203;DHT22;7702;51.046;5.184;2023-05-28T02:17:04;11.90;99.90
15203;DHT22;7702;51.046;5.184;2023-05-28T02:19:29;11.90;99.90
15203;DHT22;7702;51.046;5.184;2023-05-28T02:21:55;11.90;99.90
15203;DHT22;7702;51.046;5.184;2023-05-28T02:24:23;11.80;99.90
15203;DHT22;7702;51.046;5.184;2023-05-28T02:26:49;11.90;99.90
15203;DHT22;7702;51.046;5.184;2023-05-28T02:29:15;11.90;99.90
15203;DHT22;7702;51.046;5.184;2023-05-28T02:31:41;11.80;99.90
15203;DHT22;7702;51.046;5.184;2023-05-28T02:34:08;11.70;99.90
15203;DHT22;7702;51.046;5.184;2023-05-28T02:36:34;11.80;99.90
15203;DHT22;7702;51.046;5.184;2023-05-28T02:39:01;11.80;99.90
15203;DHT22;7702;51.046;5.184;2023-05-28T02:41:27;11.80;99.90
15203;DHT22;7702;51.046;5.184;2023-05-28T02:43:54;11.70;99.90
15203;DHT22;7702;51.046;5.184;2023-05-28T02:46:19;11.70;99.90
15203;DHT22;7702;51.046;5.184;2023-05-28T02:48:45;11.70;99.90
15203;DHT22;7702;51.046;5.184;2023-05-28T02:51:11;11.70;99.90
15203;DHT22;7702;51.046;5.184;2023-05-28T02:53:37;11.70;99.90
15203;DHT22;7702;51.046;5.184;2023-05-28T02:56:03;11.70;99.90
15203;DHT22;7702;51.046;5.184;2023-05-28T02:58:29;11.70;99.90
15203;DHT22;7702;51.046;5.184;2023-05-28T03:00:56;11.80;99.90
15203;DHT22;7702;51.046;5.184;2023-05-28T03:03:22;11.80;99.90
15203;DHT22;7702;51.046;5.184;2023-05-28T03:05:48;11.80;99.90
15203;DHT22;7702;51.046;5.184;2023-05-28T03:08:14;11.80;99.90
15203;DHT22;7702;51.046;5.184;2023-05-28T03:10:40;11.80;99.90
15203;DHT22;7702;51.046;5.184;2023-05-28T03:13:06;11.80;99.90
15203;DHT22;7702;51.046;5.184;2023-05-28T03:15:31;11.70;99.90
15203;DHT22;7702;51.046;5.184;2023-05-28T03:17:57;11.80;99.90
15203;DHT22;7702;51.046;5.184;2023-05-28T03:20:23;11.70;99.90
15203;DHT22;7702;51.046;5.184;2023-05-28T03:22:55;11.60;99.90
15203;DHT22;7702;51.046;5.184;2023-05-28T03:25:21;11.50;99.90
15203;DHT22;7702;51.046;5.184;2023-05-28T03:27:47;11.40;99.90
15203;DHT22;7702;51.046;5.184;2023-05-28T03:30:13;11.40;99.90
15203;DHT22;7702;51.046;5.184;2023-05-28T03:32:40;11.40;99.90
15203;DHT22;7702;51.046;5.184;2023-05-28T03:35:06;11.30;99.90
15203;DHT22;7702;51.046;5.184;2023-05-28T03:37:32;11.30;99.90
15203;DHT22;7702;51.046;5.184;2023-05-28T03:39:57;11.30;99.90
15203;DHT22;7702;51.046;5.184;2023-05-28T03:42:23;11.20;99.90
15203;DHT22;7702;51.046;5.184;2023-05-28T03:44:49;11.20;99.90
15203;DHT22;7702;51.046;5.184;2023-05-28T03:47:14;11.20;99.90
15203;DHT22;7702;51.046;5.184;2023-05-28T03:49:41;11.10;99.90
15203;DHT22;7702;51.046;5.184;2023-05-28T03:52:06;11.10;99.90
15203;DHT22;7702;51.046;5.184;2023-05-28T03:54:32;11.10;99.90
15203;DHT22;7702;51.046;5.184;2023-05-28T03:56:58;11.10;99.90
15203;DHT22;7702;51.046;5.184;2023-05-28T03:59:24;11.00;99.90
15203;DHT22;7702;51.046;5.184;2023-05-28T04:01:50;11.00;99.90
15203;DHT22;7702;51.046;5.184;2023-05-28T04:04:16;10.90;99.90
15203;DHT22;7702;51.046;5.184;2023-05-28T04:06:42;11.00;99.90
15203;DHT22;7702;51.046;5.184;2023-05-28T04:09:08;10.90;99.90
15203;DHT22;7702;51.046;5.184;2023-05-28T04:11:34;10.90;99.90
15203;DHT22;7702;51.046;5.184;2023-05-28T04:14:02;11.00;99.90
15203;DHT22;7702;51.046;5.184;2023-05-28T04:16:28;11.00;99.90
15203;DHT22;7702;51.046;5.184;2023-05-28T04:18:54;11.00;99.90
15203;DHT22;7702;51.046;5.184;2023-05-28T04:21:20;11.00;99.90
15203;DHT22;7702;51.046;5.184;2023-05-28T04:23:47;11.10;99.90
15203;DHT22;7702;51.046;5.184;2023-05-28T04:26:13;11.10;99.90
15203;DHT22;7702;51.046;5.184;2023-05-28T04:28:40;11.20;99.90
15203;DHT22;7702;51.046;5.184;2023-05-28T04:31:06;11.30;99.90
15203;DHT22;7702;51.046;5.184;2023-05-28T04:33:32;11.30;99.90
15203;DHT22;7702;51.046;5.184;2023-05-28T04:35:59;11.30;99.90
15203;DHT22;7702;51.046;5.184;2023-05-28T04:38:26;11.40;99.90
15203;DHT22;7702;51.046;5.184;2023-05-28T04:40:55;11.50;99.90
15203;DHT22;7702;51.046;5.184;2023-05-28T04:43:21;11.50;99.90
15203;DHT22;7702;51.046;5.184;2023-05-28T04:45:49;11.70;99.90
15203;DHT22;7702;51.046;5.184;2023-05-28T04:48:18;11.80;99.90
15203;DHT22;7702;51.046;5.184;2023-05-28T04:50:45;11.80;99.90
15203;DHT22;7702;51.046;5.184;2023-05-28T04:53:11;12.00;99.90
15203;DHT22;7702;51.046;5.184;2023-05-28T04:55:37;12.10;99.90
15203;DHT22;7702;51.046;5.184;2023-05-28T04:58:02;12.20;99.90
15203;DHT22;7702;51.046;5.184;2023-05-28T05:00:28;12.30;99.90
15203;DHT22;7702;51.046;5.184;2023-05-28T05:02:56;12.30;99.90
15203;DHT22;7702;51.046;5.184;2023-05-28T05:05:22;12.40;99.90
15203;DHT22;7702;51.046;5.184;2023-05-28T05:07:48;12.50;99.90
15203;DHT22;7702;51.046;5.184;2023-05-28T05:10:14;12.60;99.90
15203;DHT22;7702;51.046;5.184;2023-05-28T05:12:40;12.80;99.90
15203;DHT22;7702;51.046;5.184;2023-05-28T05:15:06;12.90;99.90
15203;DHT22;7702;51.046;5.184;2023-05-28T05:17:32;13.00;99.90
15203;DHT22;7702;51.046;5.184;2023-05-28T05:20:00;13.10;99.90
15203;DHT22;7702;51.046;5.184;2023-05-28T05:22:26;13.30;99.90
15203;DHT22;7702;51.046;5.184;2023-05-28T05:24:53;13.50;99.90
15203;DHT22;7702;51.046;5.184;2023-05-28T05:27:18;13.60;99.90
15203;DHT22;7702;51.046;5.184;2023-05-28T05:29:44;13.70;99.90
15203;DHT22;7702;51.046;5.184;2023-05-28T05:32:10;13.80;99.90
15203;DHT22;7702;51.046;5.184;2023-05-28T05:34:36;13.90;99.90
15203;DHT22;7702;51.046;5.184;2023-05-28T05:37:02;14.00;99.90
15203;DHT22;7702;51.046;5.184;2023-05-28T05:39:28;14.20;99.90
15203;DHT22;7702;51.046;5.184;2023-05-28T05:41:54;14.20;99.90
15203;DHT22;7702;51.046;5.184;2023-05-28T05:44:20;14.20;99.90
15203;DHT22;7702;51.046;5.184;2023-05-28T05:46:46;14.40;99.90
15203;DHT22;7702;51.046;5.184;2023-05-28T05:49:11;14.50;99.90
15203;DHT22;7702;51.046;5.184;2023-05-28T05:51:37;14.60;99.90
15203;DHT22;7702;51.046;5.184;2023-05-28T05:54:03;14.60;99.90
15203;DHT22;7702;51.046;5.184;2023-05-28T05:56:29;14.80;99.90
15203;DHT22;7702;51.046;5.184;2023-05-28T05:58:56;14.90;99.90
15203;DHT22;7702;51.046;5.184;2023-05-28T06:01:22;15.10;99.90
15203;DHT22;7702;51.046;5.184;2023-05-28T06:03:49;15.20;99.90
15203;DHT22;7702;51.046;5.184;2023-05-28T06:06:14;15.20;99.90
15203;DHT22;7702;51.046;5.184;2023-05-28T06:08:40;15.20;99.90
15203;DHT22;7702;51.046;5.184;2023-05-28T06:11:07;15.40;99.90
15203;DHT22;7702;51.046;5.184;2023-05-28T06:13:34;15.30;99.90
15203;DHT22;7702;51.046;5.184;2023-05-28T06:16:05;15.50;99.90
15203;DHT22;7702;51.046;5.184;2023-05-28T06:18:31;15.60;99.90
15203;DHT22;7702;51.046;5.184;2023-05-28T06:20:57;15.70;99.90
15203;DHT22;7702;51.046;5.184;2023-05-28T06:23:23;15.90;99.90
15203;DHT22;7702;51.046;5.184;2023-05-28T06:25:49;16.10;99.90
15203;DHT22;7702;51.046;5.184;2023-05-28T06:28:15;16.10;99.90
15203;DHT22;7702;51.046;5.184;2023-05-28T06:30:41;16.10;99.90
15203;DHT22;7702;51.046;5.184;2023-05-28T06:33:07;16.40;99.90
15203;DHT22;7702;51.046;5.184;2023-05-28T06:35:34;16.60;99.90
15203;DHT22;7702;51.046;5.184;2023-05-28T06:38:00;16.50;99.90
15203;DHT22;7702;51.046;5.184;2023-05-28T06:40:26;16.50;99.90
15203;DHT22;7702;51.046;5.184;2023-05-28T06:42:51;16.30;99.90
15203;DHT22;7702;51.046;5.184;2023-05-28T06:45:17;16.50;99.90
15203;DHT22;7702;51.046;5.184;2023-05-28T06:47:44;16.80;99.90
15203;DHT22;7702;51.046;5.184;2023-05-28T06:50:10;17.10;99.90
15203;DHT22;7702;51.046;5.184;2023-05-28T06:52:37;17.40;99.90
15203;DHT22;7702;51.046;5.184;2023-05-28T06:55:02;17.50;99.90
15203;DHT22;7702;51.046;5.184;2023-05-28T06:57:31;17.70;99.90
15203;DHT22;7702;51.046;5.184;2023-05-28T06:59:57;18.00;99.90
15203;DHT22;7702;51.046;5.184;2023-05-28T07:02:23;18.00;99.90
15203;DHT22;7702;51.046;5.184;2023-05-28T07:04:49;18.30;99.90
15203;DHT22;7702;51.046;5.184;2023-05-28T07:07:15;18.30;99.90
15203;DHT22;7702;51.046;5.184;2023-05-28T07:09:41;18.50;99.90
15203;DHT22;7702;51.046;5.184;2023-05-28T07:12:06;18.60;99.90
15203;DHT22;7702;51.046;5.184;2023-05-28T07:14:32;18.30;99.90
15203;DHT22;7702;51.046;5.184;2023-05-28T07:16:58;18.30;99.90
15203;DHT22;7702;51.046;5.184;2023-05-28T07:19:23;18.60;99.90
15203;DHT22;7702;51.046;5.184;2023-05-28T07:21:50;19.00;99.90
15203;DHT22;7702;51.046;5.184;2023-05-28T07:24:15;19.20;99.90
15203;DHT22;7702;51.046;5.184;2023-05-28T07:26:41;19.40;99.90
15203;DHT22;7702;51.046;5.184;2023-05-28T07:29:06;19.60;99.90
15203;DHT22;7702;51.046;5.184;2023-05-28T07:31:33;19.80;99.90
15203;DHT22;7702;51.046;5.184;2023-05-28T07:33:58;20.00;99.90
15203;DHT22;7702;51.046;5.184;2023-05-28T07:36:24;20.20;99.90
15203;DHT22;7702;51.046;5.184;2023-05-28T07:38:50;20.10;99.90
15203;DHT22;7702;51.046;5.184;2023-05-28T07:41:15;20.30;99.90
15203;DHT22;7702;51.046;5.184;2023-05-28T07:43:41;20.60;99.90
15203;DHT22;7702;51.046;5.184;2023-05-28T07:46:07;20.80;99.90
15203;DHT22;7702;51.046;5.184;2023-05-28T07:48:32;20.70;99.90
15203;DHT22;7702;51.046;5.184;2023-05-28T07:50:58;21.00;99.90
15203;DHT22;7702;51.046;5.184;2023-05-28T07:53:24;20.90;99.90
15203;DHT22;7702;51.046;5.184;2023-05-28T07:55:50;21.30;99.90
15203;DHT22;7702;51.046;5.184;2023-05-28T07:58:18;21.60;99.90
15203;DHT22;7702;51.046;5.184;2023-05-28T08:00:44;21.70;99.90
15203;DHT22;7702;51.046;5.184;2023-05-28T08:03:10;21.90;99.90
15203;DHT22;7702;51.046;5.184;2023-05-28T08:05:37;22.00;99.90
15203;DHT22;7702;51.046;5.184;2023-05-28T08:08:02;22.40;99.90
15203;DHT22;7702;51.046;5.184;2023-05-28T08:10:28;22.50;99.90
15203;DHT22;7702;51.046;5.184;2023-05-28T08:12:55;22.80;99.90
15203;DHT22;7702;51.046;5.184;2023-05-28T08:15:21;22.70;99.90
15203;DHT22;7702;51.046;5.184;2023-05-28T08:17:47;22.60;99.90
15203;DHT22;7702;51.046;5.184;2023-05-28T08:20:13;22.80;99.90
15203;DHT22;7702;51.046;5.184;2023-05-28T08:22:38;23.00;99.90
15203;DHT22;7702;51.046;5.184;2023-05-28T08:25:05;23.00;99.90
15203;DHT22;7702;51.046;5.184;2023-05-28T08:27:31;23.00;99.90
15203;DHT22;7702;51.046;5.184;2023-05-28T08:29:57;23.20;99.90
15203;DHT22;7702;51.046;5.184;2023-05-28T08:32:23;23.30;99.90
15203;DHT22;7702;51.046;5.184;2023-05-28T08:34:48;23.00;99.90
15203;DHT22;7702;51.046;5.184;2023-05-28T08:37:14;23.30;99.90
15203;DHT22;7702;51.046;5.184;2023-05-28T08:39:40;23.30;99.90
15203;DHT22;7702;51.046;5.184;2023-05-28T08:42:06;23.60;99.90
15203;DHT22;7702;51.046;5.184;2023-05-28T08:44:33;23.90;99.90
15203;DHT22;7702;51.046;5.184;2023-05-28T08:46:59;24.10;99.90
15203;DHT22;7702;51.046;5.184;2023-05-28T08:49:41;24.10;99.90
15203;DHT22;7702;51.046;5.184;2023-05-28T08:52:08;24.20;99.90
15203;DHT22;7702;51.046;5.184;2023-05-28T08:54:37;24.50;99.90
15203;DHT22;7702;51.046;5.184;2023-05-28T08:57:04;24.70;99.90
15203;DHT22;7702;51.046;5.184;2023-05-28T08:59:31;24.70;99.90
15203;DHT22;7702;51.046;5.184;2023-05-28T09:01:57;25.10;99.90
15203;DHT22;7702;51.046;5.184;2023-05-28T09:04:23;25.20;99.90
15203;DHT22;7702;51.046;5.184;2023-05-28T09:06:49;25.10;99.90
15203;DHT22;7702;51.046;5.184;2023-05-28T09:09:18;25.40;98.80
15203;DHT22;7702;51.046;5.184;2023-05-28T09:11:45;25.80;99.30
15203;DHT22;7702;51.046;5.184;2023-05-28T09:14:12;25.90;96.70
15203;DHT22;7702;51.046;5.184;2023-05-28T09:16:43;25.90;96.80
15203;DHT22;7702;51.046;5.184;2023-05-28T09:19:09;25.80;99.80
15203;DHT22;7702;51.046;5.184;2023-05-28T09:21:35;25.90;97.10
15203;DHT22;7702;51.046;5.184;2023-05-28T09:24:04;26.00;95.00
15203;DHT22;7702;51.046;5.184;2023-05-28T09:26:31;26.10;95.50
15203;DHT22;7702;51.046;5.184;2023-05-28T09:28:57;26.40;96.50
15203;DHT22;7702;51.046;5.184;2023-05-28T09:31:31;26.50;93.20
15203;DHT22;7702;51.046;5.184;2023-05-28T09:34:03;26.70;94.30
15203;DHT22;7702;51.046;5.184;2023-05-28T09:36:29;26.90;93.00
15203;DHT22;7702;51.046;5.184;2023-05-28T09:38:58;26.80;92.00
15203;DHT22;7702;51.046;5.184;2023-05-28T09:41:25;26.80;93.10
15203;DHT22;7702;51.046;5.184;2023-05-28T09:43:58;27.00;91.80
15203;DHT22;7702;51.046;5.184;2023-05-28T09:46:34;27.20;91.00
15203;DHT22;7702;51.046;5.184;2023-05-28T09:49:01;27.50;90.80
15203;DHT22;7702;51.046;5.184;2023-05-28T09:51:29;27.40;88.80
15203;DHT22;7702;51.046;5.184;2023-05-28T09:53:57;27.30;90.70
15203;DHT22;7702;51.046;5.184;2023-05-28T09:56:26;27.60;87.90
15203;DHT22;7702;51.046;5.184;2023-05-28T09:58:57;27.50;82.80
15203;DHT22;7702;51.046;5.184;2023-05-28T10:01:25;27.10;85.70
15203;DHT22;7702;51.046;5.184;2023-05-28T10:04:14;27.40;84.20
15203;DHT22;7702;51.046;5.184;2023-05-28T10:06:43;27.70;82.10
15203;DHT22;7702;51.046;5.184;2023-05-28T10:09:12;27.60;80.60
15203;DHT22;7702;51.046;5.184;2023-05-28T10:11:55;27.60;82.60
15203;DHT22;7702;51.046;5.184;2023-05-28T10:14:22;27.90;82.80
15203;DHT22;7702;51.046;5.184;2023-05-28T10:16:49;28.20;80.30
15203;DHT22;7702;51.046;5.184;2023-05-28T10:19:15;28.40;77.70
15203;DHT22;7702;51.046;5.184;2023-05-28T10:21:41;28.20;75.10
15203;DHT22;7702;51.046;5.184;2023-05-28T10:24:07;28.10;76.60
15203;DHT22;7702;51.046;5.184;2023-05-28T10:26:33;28.10;72.60
15203;DHT22;7702;51.046;5.184;2023-05-28T10:28:59;28.10;72.10
15203;DHT22;7702;51.046;5.184;2023-05-28T10:31:25;28.10;75.20
15203;DHT22;7702;51.046;5.184;2023-05-28T10:33:51;28.20;72.10
15203;DHT22;7702;51.046;5.184;2023-05-28T10:36:17;28.10;70.50
15203;DHT22;7702;51.046;5.184;2023-05-28T10:38:57;28.20;71.60
15203;DHT22;7702;51.046;5.184;2023-05-28T10:41:31;28.40;69.50
15203;DHT22;7702;51.046;5.184;2023-05-28T10:44:05;28.80;74.50
15203;DHT22;7702;51.046;5.184;2023-05-28T10:46:38;29.00;71.70
15203;DHT22;7702;51.046;5.184;2023-05-28T10:49:15;29.20;71.30
15203;DHT22;7702;51.046;5.184;2023-05-28T10:52:01;29.60;71.20
15203;DHT22;7702;51.046;5.184;2023-05-28T10:57:22;29.40;69.90
15203;DHT22;7702;51.046;5.184;2023-05-28T10:59:58;29.10;69.70
15203;DHT22;7702;51.046;5.184;2023-05-28T11:02:25;29.10;70.90
15203;DHT22;7702;51.046;5.184;2023-05-28T11:04:59;29.10;69.50
15203;DHT22;7702;51.046;5.184;2023-05-28T11:09:57;29.70;67.60
15203;DHT22;7702;51.046;5.184;2023-05-28T11:12:26;29.90;66.10
15203;DHT22;7702;51.046;5.184;2023-05-28T11:14:52;29.80;67.10
15203;DHT22;7702;51.046;5.184;2023-05-28T11:17:18;29.50;69.00
15203;DHT22;7702;51.046;5.184;2023-05-28T11:19:46;29.50;69.30
15203;DHT22;7702;51.046;5.184;2023-05-28T11:22:14;29.70;64.30
15203;DHT22;7702;51.046;5.184;2023-05-28T11:27:27;29.70;63.90
15203;DHT22;7702;51.046;5.184;2023-05-28T11:29:55;29.40;66.10
15203;DHT22;7702;51.046;5.184;2023-05-28T11:32:23;30.10;66.20
15203;DHT22;7702;51.046;5.184;2023-05-28T11:34:50;30.40;62.90
15203;DHT22;7702;51.046;5.184;2023-05-28T11:37:16;30.90;67.60
15203;DHT22;7702;51.046;5.184;2023-05-28T11:39:49;30.30;62.30
15203;DHT22;7702;51.046;5.184;2023-05-28T11:42:19;30.30;61.60
15203;DHT22;7702;51.046;5.184;2023-05-28T11:44:45;30.40;60.90
15203;DHT22;7702;51.046;5.184;2023-05-28T11:47:11;30.10;61.00
15203;DHT22;7702;51.046;5.184;2023-05-28T11:49:37;29.70;64.30
15203;DHT22;7702;51.046;5.184;2023-05-28T11:52:03;29.80;63.00
15203;DHT22;7702;51.046;5.184;2023-05-28T11:54:29;30.00;60.50
15203;DHT22;7702;51.046;5.184;2023-05-28T11:56:54;29.90;61.10
15203;DHT22;7702;51.046;5.184;2023-05-28T11:59:21;29.80;60.60
15203;DHT22;7702;51.046;5.184;2023-05-28T12:01:46;30.00;61.10
15203;DHT22;7702;51.046;5.184;2023-05-28T12:04:13;29.10;64.20
15203;DHT22;7702;51.046;5.184;2023-05-28T12:06:59;29.30;63.50
15203;DHT22;7702;51.046;5.184;2023-05-28T12:09:25;29.70;62.90
15203;DHT22;7702;51.046;5.184;2023-05-28T12:12:10;29.90;59.60
15203;DHT22;7702;51.046;5.184;2023-05-28T12:14:37;29.90;58.30
15203;DHT22;7702;51.046;5.184;2023-05-28T12:17:07;30.20;59.80
15203;DHT22;7702;51.046;5.184;2023-05-28T12:19:35;30.40;58.90
15203;DHT22;7702;51.046;5.184;2023-05-28T12:22:01;29.90;59.20
15203;DHT22;7702;51.046;5.184;2023-05-28T12:24:28;30.10;63.60
15203;DHT22;7702;51.046;5.184;2023-05-28T12:26:54;30.70;60.80
15203;DHT22;7702;51.046;5.184;2023-05-28T12:29:19;31.30;58.60
15203;DHT22;7702;51.046;5.184;2023-05-28T12:31:45;31.00;56.80
15203;DHT22;7702;51.046;5.184;2023-05-28T12:34:11;30.70;57.00
15203;DHT22;7702;51.046;5.184;2023-05-28T12:36:37;30.70;57.40
15203;DHT22;7702;51.046;5.184;2023-05-28T12:39:03;30.60;56.90
15203;DHT22;7702;51.046;5.184;2023-05-28T12:41:30;30.00;58.80
15203;DHT22;7702;51.046;5.184;2023-05-28T12:43:56;29.60;58.00
15203;DHT22;7702;51.046;5.184;2023-05-28T12:46:22;29.60;59.90
15203;DHT22;7702;51.046;5.184;2023-05-28T12:48:48;29.80;58.20
15203;DHT22;7702;51.046;5.184;2023-05-28T12:51:14;29.60;57.30
15203;DHT22;7702;51.046;5.184;2023-05-28T12:53:40;29.60;59.30
15203;DHT22;7702;51.046;5.184;2023-05-28T12:56:06;29.70;59.30
15203;DHT22;7702;51.046;5.184;2023-05-28T12:58:31;29.90;58.60
15203;DHT22;7702;51.046;5.184;2023-05-28T13:00:57;29.90;59.50
15203;DHT22;7702;51.046;5.184;2023-05-28T13:03:23;30.00;60.10
15203;DHT22;7702;51.046;5.184;2023-05-28T13:05:49;30.10;59.40
15203;DHT22;7702;51.046;5.184;2023-05-28T13:08:15;30.10;60.80
15203;DHT22;7702;51.046;5.184;2023-05-28T13:10:40;30.10;61.30
15203;DHT22;7702;51.046;5.184;2023-05-28T13:13:06;29.70;63.30
15203;DHT22;7702;51.046;5.184;2023-05-28T13:15:32;29.40;63.10
15203;DHT22;7702;51.046;5.184;2023-05-28T13:17:57;29.20;62.80
15203;DHT22;7702;51.046;5.184;2023-05-28T13:20:23;28.90;65.70
15203;DHT22;7702;51.046;5.184;2023-05-28T13:22:50;28.80;62.80
15203;DHT22;7702;51.046;5.184;2023-05-28T13:25:17;28.70;62.50
15203;DHT22;7702;51.046;5.184;2023-05-28T13:27:43;28.50;61.40
15203;DHT22;7702;51.046;5.184;2023-05-28T13:30:09;28.50;64.40
15203;DHT22;7702;51.046;5.184;2023-05-28T13:32:36;29.00;62.60
15203;DHT22;7702;51.046;5.184;2023-05-28T13:35:01;29.10;60.20
15203;DHT22;7702;51.046;5.184;2023-05-28T13:37:27;29.60;60.90
15203;DHT22;7702;51.046;5.184;2023-05-28T13:39:53;29.90;58.10
15203;DHT22;7702;51.046;5.184;2023-05-28T13:42:19;30.00;58.90
15203;DHT22;7702;51.046;5.184;2023-05-28T13:44:45;29.90;56.30
15203;DHT22;7702;51.046;5.184;2023-05-28T13:47:12;29.60;57.50
15203;DHT22;7702;51.046;5.184;2023-05-28T13:49:38;29.40;55.80
15203;DHT22;7702;51.046;5.184;2023-05-28T13:52:04;30.10;55.60
15203;DHT22;7702;51.046;5.184;2023-05-28T13:54:30;29.90;58.50
15203;DHT22;7702;51.046;5.184;2023-05-28T13:56:56;30.30;57.50
15203;DHT22;7702;51.046;5.184;2023-05-28T13:59:21;30.30;54.70
15203;DHT22;7702;51.046;5.184;2023-05-28T14:01:47;30.60;55.20
15203;DHT22;7702;51.046;5.184;2023-05-28T14:04:13;30.60;54.50
15203;DHT22;7702;51.046;5.184;2023-05-28T14:06:39;29.80;54.50
15203;DHT22;7702;51.046;5.184;2023-05-28T14:09:05;30.30;55.80
15203;DHT22;7702;51.046;5.184;2023-05-28T14:11:34;29.70;53.60
15203;DHT22;7702;51.046;5.184;2023-05-28T14:14:00;29.20;55.50
15203;DHT22;7702;51.046;5.184;2023-05-28T14:16:25;28.70;54.90
15203;DHT22;7702;51.046;5.184;2023-05-28T14:18:51;28.70;56.20
15203;DHT22;7702;51.046;5.184;2023-05-28T14:21:17;29.40;58.70
15203;DHT22;7702;51.046;5.184;2023-05-28T14:23:42;30.20;57.30
15203;DHT22;7702;51.046;5.184;2023-05-28T14:26:08;30.80;58.00
15203;DHT22;7702;51.046;5.184;2023-05-28T14:28:34;31.10;56.60
15203;DHT22;7702;51.046;5.184;2023-05-28T14:31:00;31.20;53.90
15203;DHT22;7702;51.046;5.184;2023-05-28T14:33:26;30.80;56.10
15203;DHT22;7702;51.046;5.184;2023-05-28T14:35:54;29.90;55.50
15203;DHT22;7702;51.046;5.184;2023-05-28T14:38:21;28.30;56.40
15203;DHT22;7702;51.046;5.184;2023-05-28T14:40:46;27.90;54.60
15203;DHT22;7702;51.046;5.184;2023-05-28T14:43:12;27.40;56.70
15203;DHT22;7702;51.046;5.184;2023-05-28T14:45:38;27.30;57.60
15203;DHT22;7702;51.046;5.184;2023-05-28T14:48:04;27.30;58.20
15203;DHT22;7702;51.046;5.184;2023-05-28T14:50:29;27.70;56.90
15203;DHT22;7702;51.046;5.184;2023-05-28T14:52:56;28.00;59.40
15203;DHT22;7702;51.046;5.184;2023-05-28T14:55:21;28.20;59.20
15203;DHT22;7702;51.046;5.184;2023-05-28T14:57:47;28.60;56.60
15203;DHT22;7702;51.046;5.184;2023-05-28T15:00:13;28.70;58.50
15203;DHT22;7702;51.046;5.184;2023-05-28T15:02:39;28.80;55.30
15203;DHT22;7702;51.046;5.184;2023-05-28T15:05:05;28.50;57.50
15203;DHT22;7702;51.046;5.184;2023-05-28T15:07:31;28.70;56.80
15203;DHT22;7702;51.046;5.184;2023-05-28T15:09:57;29.40;57.30
15203;DHT22;7702;51.046;5.184;2023-05-28T15:12:24;29.90;56.90
15203;DHT22;7702;51.046;5.184;2023-05-28T15:14:49;30.40;54.20
15203;DHT22;7702;51.046;5.184;2023-05-28T15:17:15;30.40;53.90
15203;DHT22;7702;51.046;5.184;2023-05-28T15:19:41;30.30;54.50
15203;DHT22;7702;51.046;5.184;2023-05-28T15:22:07;30.60;54.60
15203;DHT22;7702;51.046;5.184;2023-05-28T15:24:33;30.30;52.70
15203;DHT22;7702;51.046;5.184;2023-05-28T15:27:01;31.10;52.40
15203;DHT22;7702;51.046;5.184;2023-05-28T15:29:28;31.80;50.00
15203;DHT22;7702;51.046;5.184;2023-05-28T15:31:55;31.90;50.40
15203;DHT22;7702;51.046;5.184;2023-05-28T15:34:22;31.90;50.20
15203;DHT22;7702;51.046;5.184;2023-05-28T15:36:48;31.70;49.50
15203;DHT22;7702;51.046;5.184;2023-05-28T15:39:14;31.00;51.40
15203;DHT22;7702;51.046;5.184;2023-05-28T15:41:41;30.90;53.10
15203;DHT22;7702;51.046;5.184;2023-05-28T15:44:07;31.10;52.50
15203;DHT22;7702;51.046;5.184;2023-05-28T15:46:33;31.20;51.20
15203;DHT22;7702;51.046;5.184;2023-05-28T15:48:59;31.00;52.20
15203;DHT22;7702;51.046;5.184;2023-05-28T15:51:25;31.00;53.70